sensor_id;sensor_type;location;lat;lon;timestamp;P1;durP1;ratioP1;P2;durP2;ratioP2
70981;SDS011;58640;51.320;9.456;2022-11-20T00:01:16;32.20;;;16.13;;
70981;SDS011;58640;51.320;9.456;2022-11-20T00:03:43;27.30;;;16.23;;
70981;SDS011;58640;51.320;9.456;2022-11-20T00:06:11;26.13;;;15.20;;
70981;SDS011;58640;51.320;9.456;2022-11-20T00:08:38;27.50;;;13.33;;
70981;SDS011;58640;51.320;9.456;2022-11-20T00:11:11;28.77;;;15.17;;
70981;SDS011;58640;51.320;9.456;2022-11-20T00:13:38;25.03;;;15.13;;
70981;SDS011;58640;51.320;9.456;2022-11-20T00:16:04;29.97;;;15.67;;
70981;SDS011;58640;51.320;9.456;2022-11-20T00:18:34;30.13;;;15.27;;
70981;SDS011;58640;51.320;9.456;2022-11-20T00:21:07;33.40;;;16.40;;
70981;SDS011;58640;51.320;9.456;2022-11-20T00:23:35;34.90;;;15.87;;
70981;SDS011;58640;51.320;9.456;2022-11-20T00:26:08;32.43;;;16.50;;
70981;SDS011;58640;51.320;9.456;2022-11-20T00:28:35;29.77;;;16.07;;
70981;SDS011;58640;51.320;9.456;2022-11-20T00:31:01;30.73;;;16.30;;
70981;SDS011;58640;51.320;9.456;2022-11-20T00:33:31;28.80;;;14.70;;
70981;SDS011;58640;51.320;9.456;2022-11-20T00:36:04;29.23;;;15.80;;
70981;SDS011;58640;51.320;9.456;2022-11-20T00:38:31;28.33;;;15.23;;
70981;SDS011;58640;51.320;9.456;2022-11-20T00:40:58;25.97;;;14.83;;
70981;SDS011;58640;51.320;9.456;2022-11-20T00:43:25;33.60;;;16.50;;
70981;SDS011;58640;51.320;9.456;2022-11-20T00:46:00;29.23;;;16.00;;
70981;SDS011;58640;51.320;9.456;2022-11-20T00:48:27;33.17;;;16.40;;
70981;SDS011;58640;51.320;9.456;2022-11-20T00:50:53;26.30;;;16.00;;
70981;SDS011;58640;51.320;9.456;2022-11-20T00:53:18;30.50;;;16.10;;
70981;SDS011;58640;51.320;9.456;2022-11-20T00:55:52;34.10;;;16.50;;
70981;SDS011;58640;51.320;9.456;2022-11-20T00:58:21;24.33;;;13.43;;
70981;SDS011;58640;51.320;9.456;2022-11-20T01:00:47;26.30;;;14.57;;
70981;SDS011;58640;51.320;9.456;2022-11-20T01:03:12;25.63;;;12.63;;
70981;SDS011;58640;51.320;9.456;2022-11-20T01:05:38;22.43;;;13.70;;
70981;SDS011;58640;51.320;9.456;2022-11-20T01:08:03;27.87;;;12.50;;
70981;SDS011;58640;51.320;9.456;2022-11-20T01:10:29;25.23;;;12.00;;
70981;SDS011;58640;51.320;9.456;2022-11-20T01:12:54;24.03;;;13.10;;
70981;SDS011;58640;51.320;9.456;2022-11-20T01:15:39;24.43;;;13.03;;
70981;SDS011;58640;51.320;9.456;2022-11-20T01:18:05;25.47;;;12.40;;
70981;SDS011;58640;51.320;9.456;2022-11-20T01:20:33;25.37;;;12.63;;
70981;SDS011;58640;51.320;9.456;2022-11-20T01:23:00;25.50;;;12.10;;
70981;SDS011;58640;51.320;9.456;2022-11-20T01:25:26;23.73;;;11.70;;
70981;SDS011;58640;51.320;9.456;2022-11-20T01:27:51;23.27;;;12.03;;
70981;SDS011;58640;51.320;9.456;2022-11-20T01:30:16;17.07;;;10.70;;
70981;SDS011;58640;51.320;9.456;2022-11-20T01:32:41;24.60;;;12.00;;
70981;SDS011;58640;51.320;9.456;2022-11-20T01:35:07;17.63;;;10.77;;
70981;SDS011;58640;51.320;9.456;2022-11-20T01:37:34;24.23;;;12.07;;
70981;SDS011;58640;51.320;9.456;2022-11-20T01:39:59;19.07;;;10.57;;
70981;SDS011;58640;51.320;9.456;2022-11-20T01:42:25;23.27;;;11.60;;
70981;SDS011;58640;51.320;9.456;2022-11-20T01:48:13;20.90;;;10.87;;
70981;SDS011;58640;51.320;9.456;2022-11-20T01:50:39;21.30;;;11.23;;
70981;SDS011;58640;51.320;9.456;2022-11-20T01:53:06;15.43;;;9.33;;
70981;SDS011;58640;51.320;9.456;2022-11-20T01:56:09;18.27;;;10.83;;
70981;SDS011;58640;51.320;9.456;2022-11-20T01:58:30;17.93;;;11.10;;
70981;SDS011;58640;51.320;9.456;2022-11-20T02:00:58;20.67;;;11.23;;
70981;SDS011;58640;51.320;9.456;2022-11-20T02:03:24;19.77;;;10.37;;
70981;SDS011;58640;51.320;9.456;2022-11-20T02:05:51;21.10;;;11.00;;
70981;SDS011;58640;51.320;9.456;2022-11-20T02:08:20;18.70;;;10.73;;
70981;SDS011;58640;51.320;9.456;2022-11-20T02:10:46;18.03;;;9.73;;
70981;SDS011;58640;51.320;9.456;2022-11-20T02:13:12;21.57;;;11.60;;
70981;SDS011;58640;51.320;9.456;2022-11-20T02:15:56;16.40;;;10.50;;
70981;SDS011;58640;51.320;9.456;2022-11-20T02:18:21;18.83;;;10.30;;
70981;SDS011;58640;51.320;9.456;2022-11-20T02:20:48;18.37;;;10.80;;
70981;SDS011;58640;51.320;9.456;2022-11-20T02:25:48;19.77;;;10.10;;
70981;SDS011;58640;51.320;9.456;2022-11-20T02:28:15;18.50;;;11.07;;
70981;SDS011;58640;51.320;9.456;2022-11-20T02:30:42;19.63;;;9.77;;
70981;SDS011;58640;51.320;9.456;2022-11-20T02:33:08;17.80;;;9.93;;
70981;SDS011;58640;51.320;9.456;2022-11-20T02:37:59;18.27;;;10.23;;
70981;SDS011;58640;51.320;9.456;2022-11-20T02:40:27;18.30;;;10.83;;
70981;SDS011;58640;51.320;9.456;2022-11-20T02:42:52;17.13;;;10.10;;
70981;SDS011;58640;51.320;9.456;2022-11-20T02:45:18;19.03;;;10.33;;
70981;SDS011;58640;51.320;9.456;2022-11-20T02:47:44;17.20;;;9.90;;
70981;SDS011;58640;51.320;9.456;2022-11-20T02:50:09;18.20;;;10.47;;
70981;SDS011;58640;51.320;9.456;2022-11-20T02:52:34;17.73;;;9.50;;
70981;SDS011;58640;51.320;9.456;2022-11-20T02:55:00;18.40;;;9.40;;
70981;SDS011;58640;51.320;9.456;2022-11-20T02:57:25;19.43;;;10.77;;
70981;SDS011;58640;51.320;9.456;2022-11-20T02:59:51;14.87;;;9.63;;
70981;SDS011;58640;51.320;9.456;2022-11-20T03:02:16;18.90;;;10.17;;
70981;SDS011;58640;51.320;9.456;2022-11-20T03:04:41;16.57;;;9.60;;
70981;SDS011;58640;51.320;9.456;2022-11-20T03:07:07;18.50;;;10.50;;
70981;SDS011;58640;51.320;9.456;2022-11-20T03:09:33;20.53;;;10.97;;
70981;SDS011;58640;51.320;9.456;2022-11-20T03:11:58;21.03;;;10.17;;
70981;SDS011;58640;51.320;9.456;2022-11-20T03:14:23;21.77;;;11.43;;
70981;SDS011;58640;51.320;9.456;2022-11-20T03:16:48;20.73;;;10.53;;
70981;SDS011;58640;51.320;9.456;2022-11-20T03:19:14;22.40;;;11.00;;
70981;SDS011;58640;51.320;9.456;2022-11-20T03:21:39;22.07;;;11.53;;
70981;SDS011;58640;51.320;9.456;2022-11-20T03:24:05;23.10;;;11.83;;
70981;SDS011;58640;51.320;9.456;2022-11-20T03:26:31;25.03;;;11.63;;
70981;SDS011;58640;51.320;9.456;2022-11-20T03:28:57;22.57;;;10.87;;
70981;SDS011;58640;51.320;9.456;2022-11-20T03:31:28;24.60;;;11.67;;
70981;SDS011;58640;51.320;9.456;2022-11-20T03:33:55;18.73;;;10.63;;
70981;SDS011;58640;51.320;9.456;2022-11-20T03:36:21;18.43;;;10.07;;
70981;SDS011;58640;51.320;9.456;2022-11-20T03:38:47;25.13;;;12.53;;
70981;SDS011;58640;51.320;9.456;2022-11-20T03:41:14;27.13;;;12.50;;
70981;SDS011;58640;51.320;9.456;2022-11-20T03:43:42;25.10;;;12.20;;
70981;SDS011;58640;51.320;9.456;2022-11-20T03:46:11;21.70;;;11.37;;
70981;SDS011;58640;51.320;9.456;2022-11-20T03:48:36;20.57;;;11.50;;
70981;SDS011;58640;51.320;9.456;2022-11-20T03:51:15;22.00;;;11.07;;
70981;SDS011;58640;51.320;9.456;2022-11-20T03:53:44;24.20;;;11.10;;
70981;SDS011;58640;51.320;9.456;2022-11-20T03:56:11;17.10;;;9.90;;
70981;SDS011;58640;51.320;9.456;2022-11-20T03:58:39;22.43;;;11.03;;
70981;SDS011;58640;51.320;9.456;2022-11-20T04:01:15;28.27;;;11.83;;
70981;SDS011;58640;51.320;9.456;2022-11-20T04:03:45;20.57;;;10.27;;
70981;SDS011;58640;51.320;9.456;2022-11-20T04:08:38;22.30;;;10.67;;
70981;SDS011;58640;51.320;9.456;2022-11-20T04:11:13;21.67;;;11.70;;
70981;SDS011;58640;51.320;9.456;2022-11-20T04:13:46;25.10;;;11.27;;
70981;SDS011;58640;51.320;9.456;2022-11-20T04:16:14;27.90;;;11.63;;
70981;SDS011;58640;51.320;9.456;2022-11-20T04:18:40;21.97;;;11.23;;
70981;SDS011;58640;51.320;9.456;2022-11-20T04:21:05;24.30;;;11.47;;
70981;SDS011;58640;51.320;9.456;2022-11-20T04:23:31;28.17;;;12.07;;
70981;SDS011;58640;51.320;9.456;2022-11-20T04:26:00;20.40;;;11.17;;
70981;SDS011;58640;51.320;9.456;2022-11-20T04:28:29;20.37;;;10.97;;
70981;SDS011;58640;51.320;9.456;2022-11-20T04:30:54;21.40;;;10.47;;
70981;SDS011;58640;51.320;9.456;2022-11-20T04:33:19;18.17;;;10.43;;
70981;SDS011;58640;51.320;9.456;2022-11-20T04:35:45;22.23;;;11.33;;
70981;SDS011;58640;51.320;9.456;2022-11-20T04:38:12;20.80;;;10.83;;
70981;SDS011;58640;51.320;9.456;2022-11-20T04:40:37;18.40;;;10.60;;
70981;SDS011;58640;51.320;9.456;2022-11-20T04:43:02;24.33;;;11.17;;
70981;SDS011;58640;51.320;9.456;2022-11-20T04:45:28;22.50;;;11.17;;
70981;SDS011;58640;51.320;9.456;2022-11-20T04:47:53;21.63;;;10.47;;
70981;SDS011;58640;51.320;9.456;2022-11-20T04:50:18;21.20;;;11.03;;
70981;SDS011;58640;51.320;9.456;2022-11-20T04:52:44;19.87;;;10.60;;
70981;SDS011;58640;51.320;9.456;2022-11-20T04:55:09;21.70;;;10.73;;
70981;SDS011;58640;51.320;9.456;2022-11-20T04:57:34;26.70;;;11.73;;
70981;SDS011;58640;51.320;9.456;2022-11-20T04:59:59;27.20;;;11.43;;
70981;SDS011;58640;51.320;9.456;2022-11-20T05:02:25;26.43;;;11.73;;
70981;SDS011;58640;51.320;9.456;2022-11-20T05:04:50;23.87;;;11.13;;
70981;SDS011;58640;51.320;9.456;2022-11-20T05:07:15;25.40;;;11.70;;
70981;SDS011;58640;51.320;9.456;2022-11-20T05:09:41;23.70;;;12.60;;
70981;SDS011;58640;51.320;9.456;2022-11-20T05:12:07;23.83;;;11.83;;
70981;SDS011;58640;51.320;9.456;2022-11-20T05:14:33;28.17;;;12.60;;
70981;SDS011;58640;51.320;9.456;2022-11-20T05:16:59;25.60;;;12.63;;
70981;SDS011;58640;51.320;9.456;2022-11-20T05:19:24;21.57;;;11.37;;
70981;SDS011;58640;51.320;9.456;2022-11-20T05:21:49;20.93;;;10.90;;
70981;SDS011;58640;51.320;9.456;2022-11-20T05:24:15;22.03;;;11.13;;
70981;SDS011;58640;51.320;9.456;2022-11-20T05:26:40;20.57;;;9.57;;
70981;SDS011;58640;51.320;9.456;2022-11-20T05:29:05;24.53;;;12.23;;
70981;SDS011;58640;51.320;9.456;2022-11-20T05:31:30;20.93;;;10.70;;
70981;SDS011;58640;51.320;9.456;2022-11-20T05:33:56;21.07;;;10.87;;
70981;SDS011;58640;51.320;9.456;2022-11-20T05:36:21;24.10;;;11.40;;
70981;SDS011;58640;51.320;9.456;2022-11-20T05:38:47;21.53;;;11.20;;
70981;SDS011;58640;51.320;9.456;2022-11-20T05:43:40;25.57;;;12.07;;
70981;SDS011;58640;51.320;9.456;2022-11-20T05:46:07;22.23;;;11.70;;
70981;SDS011;58640;51.320;9.456;2022-11-20T05:48:34;20.43;;;11.50;;
70981;SDS011;58640;51.320;9.456;2022-11-20T05:51:01;24.60;;;11.80;;
70981;SDS011;58640;51.320;9.456;2022-11-20T05:53:28;24.17;;;11.93;;
70981;SDS011;58640;51.320;9.456;2022-11-20T05:56:01;23.53;;;10.67;;
70981;SDS011;58640;51.320;9.456;2022-11-20T05:58:28;24.87;;;12.07;;
70981;SDS011;58640;51.320;9.456;2022-11-20T06:00:54;20.13;;;11.30;;
70981;SDS011;58640;51.320;9.456;2022-11-20T06:03:20;24.60;;;11.70;;
70981;SDS011;58640;51.320;9.456;2022-11-20T06:05:45;24.03;;;12.00;;
70981;SDS011;58640;51.320;9.456;2022-11-20T06:08:10;20.83;;;11.70;;
70981;SDS011;58640;51.320;9.456;2022-11-20T06:10:36;25.23;;;11.40;;
70981;SDS011;58640;51.320;9.456;2022-11-20T06:13:01;28.67;;;13.07;;
70981;SDS011;58640;51.320;9.456;2022-11-20T06:15:26;24.50;;;12.33;;
70981;SDS011;58640;51.320;9.456;2022-11-20T06:17:52;25.87;;;12.10;;
70981;SDS011;58640;51.320;9.456;2022-11-20T06:20:18;23.03;;;12.27;;
70981;SDS011;58640;51.320;9.456;2022-11-20T06:22:44;27.53;;;11.80;;
70981;SDS011;58640;51.320;9.456;2022-11-20T06:25:09;26.43;;;13.70;;
70981;SDS011;58640;51.320;9.456;2022-11-20T06:27:34;29.10;;;13.43;;
70981;SDS011;58640;51.320;9.456;2022-11-20T06:30:00;23.90;;;12.57;;
70981;SDS011;58640;51.320;9.456;2022-11-20T06:32:25;25.93;;;11.77;;
70981;SDS011;58640;51.320;9.456;2022-11-20T06:34:50;24.63;;;12.13;;
70981;SDS011;58640;51.320;9.456;2022-11-20T06:37:15;23.77;;;12.47;;
70981;SDS011;58640;51.320;9.456;2022-11-20T06:39:41;24.67;;;12.50;;
70981;SDS011;58640;51.320;9.456;2022-11-20T06:42:06;27.27;;;12.03;;
70981;SDS011;58640;51.320;9.456;2022-11-20T06:44:31;26.03;;;12.53;;
70981;SDS011;58640;51.320;9.456;2022-11-20T06:46:57;25.93;;;11.77;;
70981;SDS011;58640;51.320;9.456;2022-11-20T06:49:22;25.30;;;11.87;;
70981;SDS011;58640;51.320;9.456;2022-11-20T06:51:47;25.20;;;11.93;;
70981;SDS011;58640;51.320;9.456;2022-11-20T06:54:13;26.23;;;12.33;;
70981;SDS011;58640;51.320;9.456;2022-11-20T06:56:38;29.13;;;12.87;;
70981;SDS011;58640;51.320;9.456;2022-11-20T06:59:04;27.30;;;12.40;;
70981;SDS011;58640;51.320;9.456;2022-11-20T07:01:30;28.47;;;12.40;;
70981;SDS011;58640;51.320;9.456;2022-11-20T07:03:56;27.93;;;13.47;;
70981;SDS011;58640;51.320;9.456;2022-11-20T07:06:21;32.47;;;12.97;;
70981;SDS011;58640;51.320;9.456;2022-11-20T07:08:46;26.00;;;12.53;;
70981;SDS011;58640;51.320;9.456;2022-11-20T07:11:12;30.50;;;13.10;;
70981;SDS011;58640;51.320;9.456;2022-11-20T07:13:37;25.90;;;12.87;;
70981;SDS011;58640;51.320;9.456;2022-11-20T07:16:04;29.30;;;14.07;;
70981;SDS011;58640;51.320;9.456;2022-11-20T07:18:31;30.03;;;14.07;;
70981;SDS011;58640;51.320;9.456;2022-11-20T07:21:03;29.67;;;13.83;;
70981;SDS011;58640;51.320;9.456;2022-11-20T07:23:30;30.60;;;13.50;;
70981;SDS011;58640;51.320;9.456;2022-11-20T07:25:56;28.93;;;14.23;;
70981;SDS011;58640;51.320;9.456;2022-11-20T07:28:21;33.30;;;14.33;;
70981;SDS011;58640;51.320;9.456;2022-11-20T07:30:50;29.60;;;14.50;;
70981;SDS011;58640;51.320;9.456;2022-11-20T07:33:16;35.20;;;15.50;;
70981;SDS011;58640;51.320;9.456;2022-11-20T07:35:42;29.73;;;14.27;;
70981;SDS011;58640;51.320;9.456;2022-11-20T07:38:07;36.47;;;15.13;;
70981;SDS011;58640;51.320;9.456;2022-11-20T07:40:33;28.93;;;14.17;;
70981;SDS011;58640;51.320;9.456;2022-11-20T07:42:58;31.43;;;14.27;;
70981;SDS011;58640;51.320;9.456;2022-11-20T07:45:23;35.27;;;15.23;;
70981;SDS011;58640;51.320;9.456;2022-11-20T07:47:49;32.50;;;15.50;;
70981;SDS011;58640;51.320;9.456;2022-11-20T07:50:15;33.73;;;15.57;;
70981;SDS011;58640;51.320;9.456;2022-11-20T07:52:41;43.97;;;16.97;;
70981;SDS011;58640;51.320;9.456;2022-11-20T07:55:07;30.83;;;15.00;;
70981;SDS011;58640;51.320;9.456;2022-11-20T07:57:33;32.67;;;14.67;;
70981;SDS011;58640;51.320;9.456;2022-11-20T07:59:59;31.63;;;14.00;;
70981;SDS011;58640;51.320;9.456;2022-11-20T08:02:24;31.87;;;14.00;;
70981;SDS011;58640;51.320;9.456;2022-11-20T08:04:50;31.53;;;14.97;;
70981;SDS011;58640;51.320;9.456;2022-11-20T08:07:15;31.63;;;13.77;;
70981;SDS011;58640;51.320;9.456;2022-11-20T08:09:40;33.13;;;14.90;;
70981;SDS011;58640;51.320;9.456;2022-11-20T08:12:06;31.90;;;14.57;;
70981;SDS011;58640;51.320;9.456;2022-11-20T08:14:50;34.07;;;15.03;;
70981;SDS011;58640;51.320;9.456;2022-11-20T08:17:15;27.30;;;12.60;;
70981;SDS011;58640;51.320;9.456;2022-11-20T08:19:40;29.03;;;12.70;;
70981;SDS011;58640;51.320;9.456;2022-11-20T08:22:05;30.03;;;14.50;;
70981;SDS011;58640;51.320;9.456;2022-11-20T08:24:31;26.30;;;12.47;;
70981;SDS011;58640;51.320;9.456;2022-11-20T08:26:59;29.43;;;12.90;;
70981;SDS011;58640;51.320;9.456;2022-11-20T08:29:27;32.37;;;13.57;;
70981;SDS011;58640;51.320;9.456;2022-11-20T08:31:53;27.03;;;13.87;;
70981;SDS011;58640;51.320;9.456;2022-11-20T08:34:18;28.67;;;14.03;;
70981;SDS011;58640;51.320;9.456;2022-11-20T08:36:43;27.50;;;13.10;;
70981;SDS011;58640;51.320;9.456;2022-11-20T08:39:10;27.57;;;12.87;;
70981;SDS011;58640;51.320;9.456;2022-11-20T08:41:36;27.63;;;13.23;;
70981;SDS011;58640;51.320;9.456;2022-11-20T08:44:03;30.57;;;14.30;;
70981;SDS011;58640;51.320;9.456;2022-11-20T08:46:33;34.07;;;14.97;;
70981;SDS011;58640;51.320;9.456;2022-11-20T08:49:02;27.93;;;14.10;;
70981;SDS011;58640;51.320;9.456;2022-11-20T08:51:27;25.40;;;13.77;;
70981;SDS011;58640;51.320;9.456;2022-11-20T08:53:53;32.47;;;14.87;;
70981;SDS011;58640;51.320;9.456;2022-11-20T08:56:18;33.00;;;14.47;;
70981;SDS011;58640;51.320;9.456;2022-11-20T08:58:43;28.50;;;13.83;;
70981;SDS011;58640;51.320;9.456;2022-11-20T09:01:09;29.50;;;13.90;;
70981;SDS011;58640;51.320;9.456;2022-11-20T09:03:34;30.80;;;13.40;;
70981;SDS011;58640;51.320;9.456;2022-11-20T09:06:00;27.33;;;14.50;;
70981;SDS011;58640;51.320;9.456;2022-11-20T09:08:27;28.33;;;13.47;;
70981;SDS011;58640;51.320;9.456;2022-11-20T09:10:53;33.17;;;14.83;;
70981;SDS011;58640;51.320;9.456;2022-11-20T09:13:23;35.93;;;15.37;;
70981;SDS011;58640;51.320;9.456;2022-11-20T09:15:59;25.93;;;13.30;;
70981;SDS011;58640;51.320;9.456;2022-11-20T09:18:32;25.70;;;13.40;;
70981;SDS011;58640;51.320;9.456;2022-11-20T09:21:02;28.63;;;14.67;;
70981;SDS011;58640;51.320;9.456;2022-11-20T09:23:33;29.67;;;14.83;;
70981;SDS011;58640;51.320;9.456;2022-11-20T09:26:10;29.07;;;14.40;;
70981;SDS011;58640;51.320;9.456;2022-11-20T09:28:37;31.77;;;14.60;;
70981;SDS011;58640;51.320;9.456;2022-11-20T09:31:09;35.67;;;17.60;;
70981;SDS011;58640;51.320;9.456;2022-11-20T09:33:48;33.97;;;15.93;;
70981;SDS011;58640;51.320;9.456;2022-11-20T09:36:13;28.03;;;14.37;;
70981;SDS011;58640;51.320;9.456;2022-11-20T09:38:39;30.73;;;15.33;;
70981;SDS011;58640;51.320;9.456;2022-11-20T09:41:05;34.47;;;17.00;;
70981;SDS011;58640;51.320;9.456;2022-11-20T09:51:42;34.30;;;15.43;;
70981;SDS011;58640;51.320;9.456;2022-11-20T09:54:23;34.97;;;15.63;;
70981;SDS011;58640;51.320;9.456;2022-11-20T09:56:56;29.57;;;14.47;;
70981;SDS011;58640;51.320;9.456;2022-11-20T09:59:32;30.17;;;14.90;;
70981;SDS011;58640;51.320;9.456;2022-11-20T10:01:59;30.23;;;15.03;;
70981;SDS011;58640;51.320;9.456;2022-11-20T10:04:25;34.40;;;15.47;;
70981;SDS011;58640;51.320;9.456;2022-11-20T10:07:01;30.47;;;14.70;;
70981;SDS011;58640;51.320;9.456;2022-11-20T10:09:33;35.03;;;15.93;;
70981;SDS011;58640;51.320;9.456;2022-11-20T10:20:32;33.53;;;14.87;;
70981;SDS011;58640;51.320;9.456;2022-11-20T10:25:39;37.23;;;16.57;;
70981;SDS011;58640;51.320;9.456;2022-11-20T10:30:50;32.87;;;15.77;;
70981;SDS011;58640;51.320;9.456;2022-11-20T10:33:23;31.93;;;15.80;;
70981;SDS011;58640;51.320;9.456;2022-11-20T10:36:14;32.57;;;15.70;;
70981;SDS011;58640;51.320;9.456;2022-11-20T10:38:59;27.60;;;14.97;;
70981;SDS011;58640;51.320;9.456;2022-11-20T10:41:32;28.97;;;15.07;;
70981;SDS011;58640;51.320;9.456;2022-11-20T10:46:32;46.37;;;17.20;;
70981;SDS011;58640;51.320;9.456;2022-11-20T10:49:03;51.63;;;18.23;;
70981;SDS011;58640;51.320;9.456;2022-11-20T10:54:46;36.93;;;16.83;;
70981;SDS011;58640;51.320;9.456;2022-11-20T11:00:21;34.47;;;17.63;;
70981;SDS011;58640;51.320;9.456;2022-11-20T11:02:53;40.47;;;18.33;;
70981;SDS011;58640;51.320;9.456;2022-11-20T11:07:45;35.93;;;18.17;;
70981;SDS011;58640;51.320;9.456;2022-11-20T11:10:18;33.87;;;17.40;;
70981;SDS011;58640;51.320;9.456;2022-11-20T11:12:51;32.13;;;16.67;;
70981;SDS011;58640;51.320;9.456;2022-11-20T11:17:57;35.90;;;16.70;;
70981;SDS011;58640;51.320;9.456;2022-11-20T11:20:25;35.37;;;16.47;;
70981;SDS011;58640;51.320;9.456;2022-11-20T11:22:52;30.03;;;15.87;;
70981;SDS011;58640;51.320;9.456;2022-11-20T11:25:29;29.90;;;16.10;;
70981;SDS011;58640;51.320;9.456;2022-11-20T11:27:59;33.80;;;15.43;;
70981;SDS011;58640;51.320;9.456;2022-11-20T11:30:29;31.03;;;15.33;;
70981;SDS011;58640;51.320;9.456;2022-11-20T11:33:06;36.17;;;18.03;;
70981;SDS011;58640;51.320;9.456;2022-11-20T11:35:38;38.90;;;17.33;;
70981;SDS011;58640;51.320;9.456;2022-11-20T11:38:14;32.33;;;18.30;;
70981;SDS011;58640;51.320;9.456;2022-11-20T11:40:43;30.63;;;16.57;;
70981;SDS011;58640;51.320;9.456;2022-11-20T11:46:21;30.50;;;16.67;;
70981;SDS011;58640;51.320;9.456;2022-11-20T11:51:36;32.33;;;15.43;;
70981;SDS011;58640;51.320;9.456;2022-11-20T11:54:37;32.53;;;16.17;;
70981;SDS011;58640;51.320;9.456;2022-11-20T11:57:00;31.00;;;15.63;;
70981;SDS011;58640;51.320;9.456;2022-11-20T11:59:46;31.90;;;16.73;;
70981;SDS011;58640;51.320;9.456;2022-11-20T12:02:25;30.10;;;14.97;;
70981;SDS011;58640;51.320;9.456;2022-11-20T12:07:51;34.57;;;16.60;;
70981;SDS011;58640;51.320;9.456;2022-11-20T12:13:20;29.97;;;16.03;;
70981;SDS011;58640;51.320;9.456;2022-11-20T12:15:59;31.60;;;16.60;;
70981;SDS011;58640;51.320;9.456;2022-11-20T12:18:25;32.87;;;16.57;;
70981;SDS011;58640;51.320;9.456;2022-11-20T12:23:53;42.17;;;18.37;;
70981;SDS011;58640;51.320;9.456;2022-11-20T12:29:29;31.33;;;16.10;;
70981;SDS011;58640;51.320;9.456;2022-11-20T12:40:28;33.13;;;16.03;;
70981;SDS011;58640;51.320;9.456;2022-11-20T12:46:07;33.30;;;17.03;;
70981;SDS011;58640;51.320;9.456;2022-11-20T13:04:55;31.50;;;17.00;;
70981;SDS011;58640;51.320;9.456;2022-11-20T13:07:35;36.63;;;17.53;;
70981;SDS011;58640;51.320;9.456;2022-11-20T13:10:01;31.17;;;16.83;;
70981;SDS011;58640;51.320;9.456;2022-11-20T13:12:44;33.13;;;16.40;;
70981;SDS011;58640;51.320;9.456;2022-11-20T13:18:01;30.10;;;14.93;;
70981;SDS011;58640;51.320;9.456;2022-11-20T13:20:30;32.03;;;15.63;;
70981;SDS011;58640;51.320;9.456;2022-11-20T13:22:58;33.13;;;15.93;;
70981;SDS011;58640;51.320;9.456;2022-11-20T13:27:49;36.57;;;17.33;;
70981;SDS011;58640;51.320;9.456;2022-11-20T13:30:16;30.85;;;15.45;;
70981;SDS011;58640;51.320;9.456;2022-11-20T13:32:53;41.43;;;18.57;;
70981;SDS011;58640;51.320;9.456;2022-11-20T13:35:25;34.17;;;16.93;;
70981;SDS011;58640;51.320;9.456;2022-11-20T13:38:04;33.97;;;17.60;;
70981;SDS011;58640;51.320;9.456;2022-11-20T13:40:32;33.87;;;18.33;;
70981;SDS011;58640;51.320;9.456;2022-11-20T13:45:54;35.63;;;17.57;;
70981;SDS011;58640;51.320;9.456;2022-11-20T13:48:22;32.97;;;17.40;;
70981;SDS011;58640;51.320;9.456;2022-11-20T13:50:55;38.53;;;18.13;;
70981;SDS011;58640;51.320;9.456;2022-11-20T13:56:10;40.57;;;19.23;;
70981;SDS011;58640;51.320;9.456;2022-11-20T14:01:38;38.37;;;18.17;;
70981;SDS011;58640;51.320;9.456;2022-11-20T14:04:07;32.53;;;15.80;;
70981;SDS011;58640;51.320;9.456;2022-11-20T14:06:41;31.97;;;14.83;;
70981;SDS011;58640;51.320;9.456;2022-11-20T14:09:27;29.50;;;14.70;;
70981;SDS011;58640;51.320;9.456;2022-11-20T14:11:54;29.17;;;15.13;;
70981;SDS011;58640;51.320;9.456;2022-11-20T14:14:21;30.77;;;14.83;;
70981;SDS011;58640;51.320;9.456;2022-11-20T14:16:48;32.80;;;16.00;;
70981;SDS011;58640;51.320;9.456;2022-11-20T14:21:46;32.33;;;15.67;;
70981;SDS011;58640;51.320;9.456;2022-11-20T14:24:13;27.40;;;15.40;;
70981;SDS011;58640;51.320;9.456;2022-11-20T14:26:42;28.83;;;15.67;;
70981;SDS011;58640;51.320;9.456;2022-11-20T14:29:13;44.67;;;20.20;;
70981;SDS011;58640;51.320;9.456;2022-11-20T14:31:42;33.57;;;17.80;;
70981;SDS011;58640;51.320;9.456;2022-11-20T14:34:23;35.13;;;17.03;;
70981;SDS011;58640;51.320;9.456;2022-11-20T14:36:55;35.40;;;14.87;;
70981;SDS011;58640;51.320;9.456;2022-11-20T14:39:33;31.70;;;13.80;;
70981;SDS011;58640;51.320;9.456;2022-11-20T14:42:00;34.37;;;16.20;;
70981;SDS011;58640;51.320;9.456;2022-11-20T14:44:32;31.23;;;16.27;;
70981;SDS011;58640;51.320;9.456;2022-11-20T14:46:59;32.87;;;16.27;;
70981;SDS011;58640;51.320;9.456;2022-11-20T14:49:27;32.10;;;15.13;;
70981;SDS011;58640;51.320;9.456;2022-11-20T14:52:11;35.60;;;16.75;;
70981;SDS011;58640;51.320;9.456;2022-11-20T14:54:49;33.00;;;15.30;;
70981;SDS011;58640;51.320;9.456;2022-11-20T14:57:40;31.83;;;15.27;;
70981;SDS011;58640;51.320;9.456;2022-11-20T15:02:39;32.57;;;15.77;;
70981;SDS011;58640;51.320;9.456;2022-11-20T15:05:06;30.40;;;15.10;;
70981;SDS011;58640;51.320;9.456;2022-11-20T15:07:32;33.43;;;15.33;;
70981;SDS011;58640;51.320;9.456;2022-11-20T15:12:33;32.67;;;16.73;;
70981;SDS011;58640;51.320;9.456;2022-11-20T15:15:02;34.33;;;15.33;;
70981;SDS011;58640;51.320;9.456;2022-11-20T15:17:30;39.70;;;16.57;;
70981;SDS011;58640;51.320;9.456;2022-11-20T15:19:56;35.73;;;15.47;;
70981;SDS011;58640;51.320;9.456;2022-11-20T15:22:21;37.90;;;16.17;;
70981;SDS011;58640;51.320;9.456;2022-11-20T15:24:47;38.03;;;17.07;;
70981;SDS011;58640;51.320;9.456;2022-11-20T15:27:12;42.70;;;16.67;;
70981;SDS011;58640;51.320;9.456;2022-11-20T15:29:37;35.43;;;15.77;;
70981;SDS011;58640;51.320;9.456;2022-11-20T15:32:03;34.90;;;16.90;;
70981;SDS011;58640;51.320;9.456;2022-11-20T15:34:28;41.13;;;17.83;;
70981;SDS011;58640;51.320;9.456;2022-11-20T15:36:54;32.27;;;15.80;;
70981;SDS011;58640;51.320;9.456;2022-11-20T15:39:19;36.87;;;16.57;;
70981;SDS011;58640;51.320;9.456;2022-11-20T15:41:45;30.47;;;16.67;;
70981;SDS011;58640;51.320;9.456;2022-11-20T15:44:10;34.63;;;15.53;;
70981;SDS011;58640;51.320;9.456;2022-11-20T15:46:36;35.83;;;16.53;;
70981;SDS011;58640;51.320;9.456;2022-11-20T15:49:05;40.77;;;16.93;;
70981;SDS011;58640;51.320;9.456;2022-11-20T15:51:32;34.07;;;16.30;;
70981;SDS011;58640;51.320;9.456;2022-11-20T15:53:59;34.10;;;16.63;;
70981;SDS011;58640;51.320;9.456;2022-11-20T15:56:24;41.53;;;18.53;;
70981;SDS011;58640;51.320;9.456;2022-11-20T15:58:50;39.27;;;17.17;;
70981;SDS011;58640;51.320;9.456;2022-11-20T16:01:20;45.47;;;19.73;;
70981;SDS011;58640;51.320;9.456;2022-11-20T16:03:47;41.30;;;17.87;;
70981;SDS011;58640;51.320;9.456;2022-11-20T16:06:12;39.17;;;17.30;;
70981;SDS011;58640;51.320;9.456;2022-11-20T16:08:38;35.37;;;15.43;;
70981;SDS011;58640;51.320;9.456;2022-11-20T16:11:03;31.17;;;15.70;;
70981;SDS011;58640;51.320;9.456;2022-11-20T16:13:30;35.87;;;17.20;;
70981;SDS011;58640;51.320;9.456;2022-11-20T16:16:19;36.60;;;17.20;;
70981;SDS011;58640;51.320;9.456;2022-11-20T16:18:50;40.23;;;18.87;;
70981;SDS011;58640;51.320;9.456;2022-11-20T16:21:16;63.97;;;27.93;;
70981;SDS011;58640;51.320;9.456;2022-11-20T16:23:41;44.20;;;20.30;;